Terminal Aerodrome Forecast
Issued by NWS Wilmington, OH

Current Version | Previous Version | Graphics & Text | Print | Product List | Glossary On
Versions: 1 2 3 4 5 6 7 8 9 10 11 12 13 14 15 16 17 18
000
FTUS41 KILN 042300
TAFCMH
TAF
KCMH 042330Z 0500/0524 25004KT P6SM BKN100
     FM050500 20003KT P6SM VCTS BKN070CB
     FM050700 16003KT P6SM -SHRA SCT040 OVC070
     FM051300 20005KT P6SM SCT070 BKN150
     FM051600 26008KT P6SM SCT070=

USA.gov is the U.S. government's official web portal to all federal, state and local government web resources and services.